Oklahoma City, OK (73101)

6:43 PM CST on February 27, 2015 (GMT -0600)
Crestwood | Change Station
CLOSE
Current Station
Personal Weather Station
Location: Oklahoma City, OK
Elevation: 1257 ft
Nearby Weather Stations
Active Advisory: Winter Weather Advisory Active Notice: Record Report

Elev 1257 ft 35.49 °N, 97.56 °W | Updated 18 seconds ago

Overcast
Overcast
17.8 °F
Feels Like 18 °F
N
0.0
Wind Variable Wind from North
Gusts 0.0 mph

Today
High -- | Low -- °F
--% Chance of Precip.
Yesterday
High -- | Low -- °F
Precip. -- in
7:02 AM 6:23 PM
Waxing Gibbous, 73% visible
Pressure 30.45 in
Visibility 8.0 miles
Clouds Mostly Cloudy 1600 ft
Overcast 4600 ft
Windchill 18 °F
Dew Point 5 °F
Humidity 56%
Rainfall 0.00 in
Snow Depth Not available.
UV 0 out of 12
Pollen 3.70 out of 12
Air Quality Not available.
Flu Activity Not available.
SPECI KPWA 280015Z 08007KT 8SM BKN016 OVC046 M08/M11 A3045 RMK AO2

More Conditions Fewer Conditions

Pressure 30.45 in
Visibility 8.0 miles
Clouds Mostly Cloudy 1600 ft
Overcast 4600 ft
Windchill 18 °F
Dew Point 5 °F
Humidity 56%
Rainfall 0.00 in
Snow Depth Not available.
UV 0 out of 12
Pollen 3.70 out of 12
Air Quality Not available.
Flu Activity Not available.
SPECI KPWA 280015Z 08007KT 8SM BKN016 OVC046 M08/M11 A3045 RMK AO2

More Conditions Fewer Conditions

10-Day Weather Forecast

Almanac

Astronomy

Feb. 27, 2015 Rise Set
Actual Time
Civil Twilight
Nautical Twilight
Astronomical Twilight
Moon
Length of Visible Light
Length of Day
Tomorrow will be .
, % of the Moon is Illuminated

Today's Extremes

State Highs State Lows

Community

WunderPhotos

Upload Photos

1,800,910 photos uploaded!

WunderBlogs® & News

Nearby

Air Quality

  Air Quality AQ Index Pollutant
Not available.

Snow Depth

Station Depth Elevation

Earthquake Activity

City Distance Mag. Time & Date
Minimum magnitude displayed is 2.5.

Coastal Water Temperatures

Place Temperature

Nearby Weather Stations

Winter Weather Advisory
Statement as of 6:01 PM CST on February 27, 2015

... Winter Weather Advisory now in effect until midnight CST
tonight...
... Winter Weather Advisory in effect from 6 am to 6 PM CST
Saturday...

The National Weather Service in Norman has issued a Winter
Weather Advisory for snow... which is in effect from 6 am to 6 PM
CST Saturday. The Winter Weather Advisory is now in effect until
midnight CST tonight.

* Timing: snow will slowly decrease this evening... but another
round of snow is expected Saturday morning through early
Saturday evening.

* Main impact: 1 to 2 inches of new snowfall.

* Other impacts: slick and hazardous roads are expected.

Precautionary/preparedness actions...

Be careful if you have to travel. Even small amounts of ice and
snow can make roads and sidewalks slick and dangerous.